createdAt,value
2022-09-18T00:02:26.313Z,18.80
2022-09-18T00:04:53.685Z,20.88
2022-09-18T00:07:20.601Z,15.63
2022-09-18T00:09:47.748Z,21.60
2022-09-18T00:12:14.650Z,21.08
2022-09-18T00:14:41.592Z,18.17
2022-09-18T00:17:09.354Z,18.35
2022-09-18T00:19:36.319Z,19.25
2022-09-18T00:22:03.076Z,18.23
2022-09-18T00:24:30.578Z,17.58
2022-09-18T00:26:57.382Z,15.07
2022-09-18T00:29:24.232Z,18.05
2022-09-18T00:31:51.432Z,19.85
2022-09-18T00:34:18.448Z,17.63
2022-09-18T00:36:45.590Z,18.15
2022-09-18T00:39:13.064Z,17.55
2022-09-18T00:41:41.811Z,19.15
2022-09-18T00:44:41.970Z,20.52
2022-09-18T00:47:11.973Z,20.23
2022-09-18T00:49:41.667Z,21.60
2022-09-18T00:52:09.104Z,22.67
2022-09-18T00:54:42.896Z,22.75
2022-09-18T00:57:12.911Z,25.75
2022-09-18T00:59:42.748Z,22.85
2022-09-18T01:02:09.723Z,26.35
2022-09-18T01:04:36.615Z,22.83
2022-09-18T01:07:35.668Z,20.25
2022-09-18T01:10:17.756Z,20.83
2022-09-18T01:12:56.054Z,20.48
2022-09-18T01:15:44.775Z,20.63
2022-09-18T01:18:49.444Z,19.25
2022-09-18T01:21:17.816Z,19.75
2022-09-18T01:24:09.151Z,19.67
2022-09-18T01:26:48.117Z,18.75
2022-09-18T01:29:27.221Z,16.15
2022-09-18T01:32:04.675Z,19.55
2022-09-18T01:34:46.912Z,18.00
2022-09-18T01:37:29.035Z,18.40
2022-09-18T01:40:15.304Z,19.05
2022-09-18T01:42:44.942Z,18.52
2022-09-18T01:45:16.645Z,20.15
2022-09-18T01:48:00.235Z,21.00
2022-09-18T01:50:32.248Z,20.38
2022-09-18T01:53:23.837Z,18.55
2022-09-18T01:55:59.748Z,19.23
2022-09-18T01:58:27.399Z,16.00
2022-09-18T02:00:59.082Z,17.77
2022-09-18T02:03:28.345Z,14.95
2022-09-18T02:06:02.582Z,16.23
2022-09-18T02:08:41.757Z,17.70
2022-09-18T02:11:13.007Z,15.82
2022-09-18T02:13:45.328Z,14.43
2022-09-18T02:16:23.358Z,16.25
2022-09-18T02:18:53.731Z,14.32
2022-09-18T02:21:26.647Z,15.00
2022-09-18T02:23:56.083Z,16.27
2022-09-18T02:26:23.728Z,15.30
2022-09-18T02:28:50.928Z,13.63
2022-09-18T02:31:18.316Z,16.67
2022-09-18T02:33:45.363Z,18.02
2022-09-18T02:36:49.850Z,15.23
2022-09-18T02:39:16.820Z,14.93
2022-09-18T02:41:53.147Z,16.70
2022-09-18T02:44:27.057Z,16.13
2022-09-18T02:47:10.876Z,15.45
2022-09-18T02:50:14.721Z,15.75
2022-09-18T02:53:03.293Z,16.08
2022-09-18T02:55:40.925Z,17.95
2022-09-18T02:58:31.057Z,17.67
2022-09-18T03:01:02.007Z,15.25
2022-09-18T03:03:31.845Z,16.27
2022-09-18T03:06:02.991Z,12.98
2022-09-18T03:08:32.659Z,15.63
2022-09-18T03:10:59.546Z,14.88
2022-09-18T03:13:28.352Z,15.95
2022-09-18T03:15:56.076Z,17.13
2022-09-18T03:18:23.790Z,13.80
2022-09-18T03:20:50.921Z,15.63
2022-09-18T03:23:18.057Z,15.80
2022-09-18T03:25:50.286Z,15.30
2022-09-18T03:28:18.387Z,13.82
2022-09-18T03:30:45.858Z,15.05
2022-09-18T03:33:13.791Z,14.55
2022-09-18T03:35:43.819Z,17.30
2022-09-18T03:38:10.742Z,17.48
2022-09-18T03:40:38.584Z,18.75
2022-09-18T03:43:06.781Z,18.77
2022-09-18T03:45:33.721Z,24.05
2022-09-18T03:48:02.341Z,24.65
2022-09-18T03:50:30.058Z,23.63
2022-09-18T03:52:57.045Z,29.25
2022-09-18T03:55:49.871Z,24.65
2022-09-18T03:58:34.793Z,29.67
2022-09-18T04:01:09.063Z,32.05
2022-09-18T04:04:00.962Z,34.22
2022-09-18T04:06:51.479Z,31.02
2022-09-18T04:09:41.332Z,31.10
2022-09-18T04:12:09.482Z,31.48
2022-09-18T04:14:36.496Z,32.88
2022-09-18T04:17:03.551Z,32.88
2022-09-18T04:19:30.990Z,28.70
2022-09-18T04:21:58.535Z,31.10
2022-09-18T04:24:25.475Z,30.15
2022-09-18T04:26:52.597Z,32.70
2022-09-18T04:29:21.820Z,30.17
2022-09-18T04:31:50.223Z,37.50
2022-09-18T04:34:19.865Z,33.45
2022-09-18T04:36:47.674Z,29.38
2022-09-18T04:39:15.054Z,36.45
2022-09-18T04:41:45.450Z,31.55
2022-09-18T04:44:14.184Z,32.33
2022-09-18T04:46:42.442Z,30.60
2022-09-18T04:49:10.892Z,34.67
2022-09-18T04:51:38.489Z,35.63
2022-09-18T04:54:05.722Z,35.50
2022-09-18T04:56:36.438Z,31.45
2022-09-18T04:59:03.813Z,32.55
2022-09-18T05:01:30.922Z,32.38
2022-09-18T05:04:02.013Z,29.45
2022-09-18T05:06:40.272Z,28.73
2022-09-18T05:09:07.321Z,34.20
2022-09-18T05:11:34.113Z,29.60
2022-09-18T05:14:01.157Z,34.28
2022-09-18T05:16:31.654Z,29.85
2022-09-18T05:19:18.064Z,30.63
2022-09-18T05:21:45.257Z,26.67
2022-09-18T05:24:14.122Z,27.33
2022-09-18T05:26:42.035Z,29.75
2022-09-18T05:29:09.082Z,26.40
2022-09-18T05:31:36.047Z,24.70
2022-09-18T05:34:03.070Z,23.88
2022-09-18T05:36:30.071Z,23.75
2022-09-18T05:38:57.088Z,23.40
2022-09-18T05:41:24.810Z,23.98
2022-09-18T05:43:51.871Z,23.90
2022-09-18T05:46:18.959Z,26.80
2022-09-18T05:48:57.590Z,28.45
2022-09-18T05:51:24.464Z,24.95
2022-09-18T05:53:51.292Z,23.42
2022-09-18T05:56:28.083Z,24.33
2022-09-18T05:58:55.724Z,23.17
2022-09-18T06:01:22.809Z,24.50
2022-09-18T06:04:09.597Z,22.27
2022-09-18T06:06:52.051Z,23.98
2022-09-18T06:09:19.173Z,23.05
2022-09-18T06:11:46.056Z,23.75
2022-09-18T06:14:12.929Z,24.20
2022-09-18T06:16:42.444Z,22.17
2022-09-18T06:19:10.401Z,21.42
2022-09-18T06:21:37.359Z,22.67
2022-09-18T06:24:07.040Z,18.65
2022-09-18T06:26:39.786Z,20.15
2022-09-18T06:29:06.834Z,18.65
2022-09-18T06:31:45.310Z,19.30
2022-09-18T06:34:18.119Z,18.20
2022-09-18T06:36:46.465Z,18.58
2022-09-18T06:39:26.186Z,18.05
2022-09-18T06:41:59.858Z,15.18
2022-09-18T06:44:46.448Z,14.20
2022-09-18T06:47:15.280Z,17.98
2022-09-18T06:49:45.218Z,21.48
2022-09-18T06:52:12.072Z,21.13
2022-09-18T06:54:40.488Z,22.38
2022-09-18T06:57:08.158Z,21.98
2022-09-18T06:59:35.032Z,23.42
2022-09-18T07:02:02.199Z,22.30
2022-09-18T07:04:47.499Z,23.45
2022-09-18T07:07:17.270Z,22.92
2022-09-18T07:09:46.928Z,24.35
2022-09-18T07:12:26.900Z,27.25
2022-09-18T07:14:54.181Z,24.02
2022-09-18T07:17:26.162Z,24.83
2022-09-18T07:19:54.848Z,20.80
2022-09-18T07:22:26.831Z,20.05
2022-09-18T07:24:55.106Z,20.02
2022-09-18T07:27:22.405Z,19.75
2022-09-18T07:29:50.689Z,20.67
2022-09-18T07:32:22.601Z,18.75
2022-09-18T07:34:50.013Z,20.30
2022-09-18T07:37:24.564Z,19.33
2022-09-18T07:40:12.887Z,20.48
2022-09-18T07:43:03.432Z,19.42
2022-09-18T07:45:30.925Z,23.30
2022-09-18T07:48:00.935Z,24.10
2022-09-18T07:50:29.952Z,23.48
2022-09-18T07:52:58.967Z,24.85
2022-09-18T07:55:31.605Z,22.85
2022-09-18T07:58:00.983Z,24.83
2022-09-18T08:00:51.423Z,22.00
2022-09-18T08:03:19.929Z,20.42
2022-09-18T08:06:13.369Z,21.45
2022-09-18T08:09:03.397Z,23.58
2022-09-18T08:11:56.168Z,22.13
2022-09-18T08:14:30.654Z,24.25
2022-09-18T08:17:17.065Z,20.92
2022-09-18T08:20:22.341Z,21.35
2022-09-18T08:23:09.630Z,24.55
2022-09-18T08:25:39.802Z,23.45
2022-09-18T08:28:07.828Z,21.30
2022-09-18T08:30:42.575Z,21.42
2022-09-18T08:33:11.403Z,22.65
2022-09-18T08:35:38.482Z,25.55
2022-09-18T08:38:18.009Z,24.25
2022-09-18T08:41:14.175Z,25.77
2022-09-18T08:43:45.174Z,24.30
2022-09-18T08:46:17.169Z,27.35
2022-09-18T08:48:54.865Z,25.42
2022-09-18T08:51:32.627Z,24.25
2022-09-18T08:54:21.272Z,25.45
2022-09-18T08:57:23.392Z,24.33
2022-09-18T09:00:24.540Z,24.77
2022-09-18T09:03:20.707Z,22.75
2022-09-18T09:06:27.169Z,23.42
2022-09-18T09:09:14.242Z,22.50
2022-09-18T09:12:10.056Z,22.27
2022-09-18T09:15:10.972Z,18.70
2022-09-18T09:17:42.378Z,21.23
2022-09-18T09:20:14.960Z,19.63
2022-09-18T09:22:50.453Z,19.38
2022-09-18T09:25:21.784Z,21.10
2022-09-18T09:28:28.322Z,19.67
2022-09-18T09:31:19.403Z,21.15
2022-09-18T09:34:37.349Z,22.98
2022-09-18T09:37:25.154Z,26.23
2022-09-18T09:39:57.805Z,20.00
2022-09-18T09:42:55.866Z,22.42
2022-09-18T09:45:49.900Z,20.40
2022-09-18T09:48:32.977Z,19.83
2022-09-18T09:51:16.775Z,21.73
2022-09-18T09:53:44.349Z,20.45
2022-09-18T09:56:28.939Z,24.52
2022-09-18T09:59:08.553Z,25.65
2022-09-18T10:02:17.924Z,23.88
2022-09-18T10:04:53.855Z,22.70
2022-09-18T10:07:34.372Z,23.73
2022-09-18T10:10:07.280Z,24.58
2022-09-18T10:12:52.128Z,21.98
2022-09-18T10:15:31.086Z,22.23
2022-09-18T10:17:59.919Z,22.27
2022-09-18T10:20:29.134Z,22.00
2022-09-18T10:23:06.596Z,20.80
2022-09-18T10:25:51.330Z,19.67
2022-09-18T10:28:18.302Z,20.80
2022-09-18T10:31:04.650Z,24.35
2022-09-18T10:33:47.547Z,23.75
2022-09-18T10:36:33.278Z,19.30
2022-09-18T10:39:29.298Z,21.83
2022-09-18T10:42:06.239Z,18.73
2022-09-18T10:44:37.264Z,22.00
2022-09-18T10:47:21.017Z,20.05
2022-09-18T10:50:06.365Z,19.60
2022-09-18T10:52:37.805Z,15.65
2022-09-18T10:55:19.533Z,17.23
2022-09-18T10:57:58.304Z,17.48
2022-09-18T11:00:25.969Z,18.17
2022-09-18T11:03:00.413Z,19.48
2022-09-18T11:05:37.265Z,16.80
2022-09-18T11:08:07.939Z,18.48
2022-09-18T11:10:37.730Z,15.10
2022-09-18T11:13:05.511Z,16.95
2022-09-18T11:15:53.378Z,15.30
2022-09-18T11:18:23.638Z,19.38
2022-09-18T11:20:52.861Z,15.75
2022-09-18T11:23:33.234Z,17.00
2022-09-18T11:26:19.523Z,12.77
2022-09-18T11:29:06.064Z,15.82
2022-09-18T11:31:40.296Z,11.82
2022-09-18T11:34:19.531Z,12.20
2022-09-18T11:36:48.775Z,12.93
2022-09-18T11:39:24.415Z,10.90
2022-09-18T11:41:53.307Z,15.75
2022-09-18T11:44:32.807Z,14.43
2022-09-18T11:47:04.698Z,6.68
2022-09-18T11:49:59.122Z,7.30
2022-09-18T11:52:31.165Z,5.88
2022-09-18T11:55:16.714Z,5.10
2022-09-18T11:57:48.682Z,16.48
2022-09-18T12:00:21.253Z,6.07
2022-09-18T12:03:18.080Z,4.57
2022-09-18T12:05:55.547Z,5.15
2022-09-18T12:08:53.311Z,14.18
2022-09-18T12:11:36.467Z,10.30
2022-09-18T12:14:08.963Z,6.00
2022-09-18T12:16:41.337Z,6.65
2022-09-18T12:19:19.327Z,6.63
2022-09-18T12:21:58.765Z,9.18
2022-09-18T12:24:25.897Z,9.07
2022-09-18T12:27:06.021Z,8.68
2022-09-18T12:29:53.702Z,6.05
2022-09-18T12:32:53.274Z,7.63
2022-09-18T12:35:36.783Z,6.10
2022-09-18T12:38:46.157Z,9.07
2022-09-18T12:41:18.738Z,16.05
2022-09-18T12:44:06.177Z,8.82
2022-09-18T12:46:56.902Z,11.00
2022-09-18T12:49:38.723Z,12.70
2022-09-18T12:53:00.324Z,7.13
2022-09-18T12:56:06.011Z,6.72
2022-09-18T12:59:03.047Z,5.90
2022-09-18T13:01:51.619Z,4.78
2022-09-18T13:04:38.765Z,6.45
2022-09-18T13:07:33.386Z,3.90
2022-09-18T13:10:15.187Z,3.30
2022-09-18T13:12:52.838Z,2.83
2022-09-18T13:15:33.313Z,3.78
2022-09-18T13:18:39.678Z,4.25
2022-09-18T13:21:10.315Z,3.60
2022-09-18T13:23:39.704Z,2.35
2022-09-18T13:26:13.797Z,1.63
2022-09-18T13:28:44.248Z,1.58
2022-09-18T13:31:30.562Z,3.25
2022-09-18T13:34:04.590Z,2.53
2022-09-18T13:36:35.984Z,4.45
2022-09-18T13:39:16.246Z,2.08
2022-09-18T13:41:50.567Z,3.03
2022-09-18T13:44:22.728Z,2.10
2022-09-18T13:46:51.469Z,4.53
2022-09-18T13:49:30.764Z,2.58
2022-09-18T13:52:35.524Z,2.28
2022-09-18T13:55:26.755Z,2.97
2022-09-18T13:58:43.056Z,3.40
2022-09-18T14:01:10.543Z,2.58
2022-09-18T14:03:41.234Z,3.05
2022-09-18T14:06:36.435Z,3.75
2022-09-18T14:09:25.235Z,3.95
2022-09-18T14:11:52.516Z,3.47
2022-09-18T14:14:23.039Z,2.83
2022-09-18T14:16:50.887Z,5.28
2022-09-18T14:19:32.325Z,3.20
2022-09-18T14:22:00.429Z,5.50
2022-09-18T14:24:49.229Z,3.63
2022-09-18T14:27:31.651Z,7.53
2022-09-18T14:30:02.492Z,7.72
2022-09-18T14:32:29.817Z,4.72
2022-09-18T14:35:22.279Z,6.07
2022-09-18T14:37:49.302Z,3.67
2022-09-18T14:40:22.080Z,4.50
2022-09-18T14:42:49.562Z,6.40
2022-09-18T14:45:29.912Z,5.68
2022-09-18T14:47:58.128Z,4.03
2022-09-18T14:50:26.825Z,6.45
2022-09-18T14:52:56.040Z,5.05
2022-09-18T14:55:30.320Z,6.28
2022-09-18T14:58:07.421Z,4.07
2022-09-18T15:00:36.222Z,5.53
2022-09-18T15:03:20.790Z,4.65
2022-09-18T15:05:50.895Z,6.40
2022-09-18T15:08:26.379Z,5.22
2022-09-18T15:10:57.145Z,8.10
2022-09-18T15:13:25.231Z,5.82
2022-09-18T15:16:01.083Z,9.63
2022-09-18T15:18:29.699Z,8.13
2022-09-18T15:20:59.191Z,6.38
2022-09-18T15:23:32.849Z,7.47
2022-09-18T15:26:02.623Z,8.55
2022-09-18T15:28:35.330Z,8.45
2022-09-18T15:31:05.066Z,16.70
2022-09-18T15:33:33.714Z,6.40
2022-09-18T15:36:02.628Z,7.10
2022-09-18T15:38:42.332Z,10.52
2022-09-18T15:41:21.483Z,14.05
2022-09-18T15:43:50.530Z,7.00
2022-09-18T15:46:30.822Z,5.05
2022-09-18T15:49:03.322Z,6.28
2022-09-18T15:51:34.501Z,5.03
2022-09-18T15:54:10.534Z,9.82
2022-09-18T15:56:40.540Z,5.00
2022-09-18T15:59:17.702Z,3.95
2022-09-18T16:01:48.582Z,6.40
2022-09-18T16:04:22.801Z,4.68
2022-09-18T16:07:01.791Z,3.85
2022-09-18T16:09:46.110Z,10.95
2022-09-18T16:12:29.805Z,15.52
2022-09-18T16:15:22.140Z,10.13
2022-09-18T16:17:49.302Z,7.95
2022-09-18T16:20:28.621Z,10.98
2022-09-18T16:23:26.964Z,14.27
2022-09-18T16:26:07.695Z,7.53
2022-09-18T16:28:45.083Z,6.93
2022-09-18T16:31:14.586Z,8.15
2022-09-18T16:33:55.598Z,6.57
2022-09-18T16:36:30.544Z,3.25
2022-09-18T16:38:59.058Z,6.88
2022-09-18T16:41:26.079Z,4.55
2022-09-18T16:43:53.954Z,7.40
2022-09-18T16:46:23.812Z,7.63
2022-09-18T16:48:51.788Z,4.90
2022-09-18T16:51:18.667Z,5.20
2022-09-18T16:53:45.921Z,6.60
2022-09-18T16:56:15.538Z,3.80
2022-09-18T16:58:43.150Z,6.55
2022-09-18T17:01:10.292Z,7.65
2022-09-18T17:03:37.108Z,5.85
2022-09-18T17:06:04.379Z,4.82
2022-09-18T17:08:31.216Z,7.60
2022-09-18T17:10:58.121Z,5.93
2022-09-18T17:13:25.435Z,7.05
2022-09-18T17:15:52.378Z,12.93
2022-09-18T17:18:19.288Z,7.90
2022-09-18T17:20:46.411Z,5.63
2022-09-18T17:23:13.536Z,6.50
2022-09-18T17:25:40.647Z,4.80
2022-09-18T17:41:36.738Z,5.28
2022-09-18T17:44:04.918Z,13.15
2022-09-18T17:46:32.024Z,6.80
2022-09-18T17:48:59.697Z,6.60
2022-09-18T17:51:28.946Z,8.90
2022-09-18T17:54:04.238Z,6.72
2022-09-18T17:56:33.067Z,5.85
2022-09-18T17:59:02.743Z,7.82
2022-09-18T18:01:30.163Z,8.95
2022-09-18T18:03:57.690Z,5.30
2022-09-18T18:06:24.894Z,7.20
2022-09-18T18:08:52.459Z,7.80
2022-09-18T18:11:25.300Z,23.77
2022-09-18T18:13:53.959Z,7.50
2022-09-18T18:16:23.594Z,11.68
2022-09-18T18:18:52.992Z,5.40
2022-09-18T18:21:20.383Z,8.20
2022-09-18T18:23:47.536Z,4.72
2022-09-18T18:26:14.535Z,7.35
2022-09-18T18:28:42.030Z,4.75
2022-09-18T18:31:13.692Z,4.53
2022-09-18T18:33:45.050Z,5.22
2022-09-18T18:36:13.953Z,6.05
2022-09-18T18:38:42.677Z,7.78
2022-09-18T18:41:12.174Z,9.10
2022-09-18T18:43:42.906Z,8.77
2022-09-18T18:46:12.865Z,14.68
2022-09-18T18:48:40.990Z,11.68
2022-09-18T18:51:14.297Z,17.90
2022-09-18T18:53:43.098Z,6.03
2022-09-18T18:56:15.263Z,6.93
2022-09-18T18:58:44.112Z,6.63
2022-09-18T19:01:18.363Z,10.73
2022-09-18T19:03:54.052Z,7.45
2022-09-18T19:06:21.621Z,6.03
2022-09-18T19:08:48.702Z,6.22
2022-09-18T19:11:18.792Z,5.43
2022-09-18T19:13:53.205Z,7.18
2022-09-18T19:16:20.485Z,6.30
2022-09-18T19:18:54.795Z,11.63
2022-09-18T19:21:22.648Z,10.18
2022-09-18T19:23:54.593Z,18.48
2022-09-18T19:26:22.967Z,10.35
2022-09-18T19:28:52.037Z,8.13
2022-09-18T19:31:19.970Z,5.72
2022-09-18T19:33:48.924Z,6.70
2022-09-18T19:36:15.956Z,8.52
2022-09-18T19:38:42.987Z,6.28
2022-09-18T19:41:46.555Z,9.20
2022-09-18T19:44:19.188Z,7.38
2022-09-18T19:46:48.196Z,6.30
2022-09-18T19:49:18.234Z,8.57
2022-09-18T19:51:45.889Z,10.82
2022-09-18T19:54:13.306Z,9.35
2022-09-18T19:56:48.412Z,9.65
2022-09-18T19:59:16.418Z,10.85
2022-09-18T20:01:43.994Z,15.80
2022-09-18T20:04:11.213Z,24.23
2022-09-18T20:06:40.513Z,11.13
2022-09-18T20:09:08.360Z,6.88
2022-09-18T20:11:35.447Z,8.02
2022-09-18T20:14:02.253Z,6.65
2022-09-18T20:16:29.393Z,4.80
2022-09-18T20:18:56.432Z,5.68
2022-09-18T20:21:24.136Z,4.55
2022-09-18T20:23:56.507Z,4.65
2022-09-18T20:26:23.539Z,4.03
2022-09-18T20:28:50.507Z,4.70
2022-09-18T20:31:17.948Z,7.20
2022-09-18T20:33:44.837Z,10.05
2022-09-18T20:36:12.525Z,20.63
2022-09-18T20:38:41.392Z,9.98
2022-09-18T20:41:13.966Z,8.02
2022-09-18T20:43:42.563Z,12.77
2022-09-18T20:46:17.862Z,7.45
2022-09-18T20:48:49.749Z,6.53
2022-09-18T20:51:18.356Z,7.30
2022-09-18T20:53:46.550Z,6.93
2022-09-18T20:56:15.616Z,5.22
2022-09-18T20:58:42.641Z,4.80
2022-09-18T21:01:13.569Z,6.55
2022-09-18T21:03:42.969Z,6.00
2022-09-18T21:06:22.331Z,4.97
2022-09-18T21:08:53.653Z,6.95
2022-09-18T21:11:28.746Z,5.45
2022-09-18T21:14:00.977Z,6.30
2022-09-18T21:16:30.193Z,6.05
2022-09-18T21:18:59.370Z,8.10
2022-09-18T21:21:30.916Z,6.68
2022-09-18T21:24:04.287Z,7.82
2022-09-18T21:26:36.611Z,7.07
2022-09-18T21:29:04.963Z,7.25
2022-09-18T21:31:35.579Z,9.57
2022-09-18T21:34:04.530Z,12.93
2022-09-18T21:36:33.655Z,11.57
2022-09-18T21:39:00.618Z,9.43
2022-09-18T21:41:27.387Z,10.07
2022-09-18T21:43:54.400Z,9.27
2022-09-18T21:46:22.476Z,10.15
2022-09-18T21:48:54.397Z,16.27
2022-09-18T21:51:21.556Z,7.07
2022-09-18T21:53:48.476Z,8.93
2022-09-18T21:56:18.004Z,5.25
2022-09-18T21:58:46.151Z,5.57
2022-09-18T22:01:20.811Z,5.00
2022-09-18T22:03:54.985Z,5.20
2022-09-18T22:06:43.688Z,6.45
2022-09-18T22:09:21.712Z,7.00
2022-09-18T22:11:49.955Z,7.25
2022-09-18T22:14:19.706Z,11.27
2022-09-18T22:16:48.265Z,8.30
2022-09-18T22:19:16.479Z,4.90
2022-09-18T22:21:46.560Z,7.13
2022-09-18T22:24:17.842Z,7.60
2022-09-18T22:26:51.787Z,12.43
2022-09-18T22:29:21.570Z,10.98
2022-09-18T22:31:49.589Z,8.63
2022-09-18T22:34:19.956Z,14.20
2022-09-18T22:36:47.695Z,15.50
2022-09-18T22:39:16.184Z,8.05
2022-09-18T22:41:43.937Z,12.40
2022-09-18T22:44:11.419Z,12.88
2022-09-18T22:46:40.982Z,8.48
2022-09-18T22:49:11.296Z,12.65
2022-09-18T22:51:39.505Z,14.93
2022-09-18T22:54:09.833Z,11.43
2022-09-18T22:56:42.667Z,9.45
2022-09-18T22:59:11.725Z,14.57
2022-09-18T23:01:42.639Z,10.02
2022-09-18T23:04:09.943Z,12.45
2022-09-18T23:06:37.043Z,7.00
2022-09-18T23:09:04.758Z,8.45
2022-09-18T23:11:33.455Z,9.05
2022-09-18T23:14:03.443Z,8.30
2022-09-18T23:16:32.237Z,8.55
2022-09-18T23:19:03.616Z,13.20
2022-09-18T23:21:33.071Z,18.58
2022-09-18T23:24:04.903Z,17.83
2022-09-18T23:26:36.775Z,10.15
2022-09-18T23:29:06.907Z,11.50
2022-09-18T23:31:36.171Z,9.57
2022-09-18T23:34:09.411Z,16.48
2022-09-18T23:36:39.536Z,9.10
2022-09-18T23:39:18.520Z,9.82
2022-09-18T23:41:46.064Z,11.75
2022-09-18T23:44:15.626Z,12.45
2022-09-18T23:46:43.396Z,11.57
2022-09-18T23:49:12.272Z,10.02
2022-09-18T23:51:48.825Z,11.18
2022-09-18T23:54:17.864Z,9.27
2022-09-18T23:56:45.024Z,7.90
2022-09-18T23:59:12.656Z,9.13
